createdAt,value
2022-09-03T00:00:06.104Z,0.55
2022-09-03T00:05:08.189Z,0.43
2022-09-03T00:07:37.577Z,0.38
2022-09-03T00:10:09.468Z,0.55
2022-09-03T00:12:40.003Z,0.70
2022-09-03T00:15:10.601Z,0.65
2022-09-03T00:17:45.795Z,0.65
2022-09-03T00:20:15.339Z,0.95
2022-09-03T00:23:07.887Z,0.55
2022-09-03T00:25:42.425Z,0.68
2022-09-03T00:28:13.563Z,0.52
2022-09-03T00:30:41.313Z,0.60
2022-09-03T00:33:10.776Z,0.50
2022-09-03T00:35:55.731Z,0.82
2022-09-03T00:38:22.368Z,0.43
2022-09-03T00:40:57.790Z,0.30
2022-09-03T00:43:31.593Z,0.30
2022-09-03T00:46:06.045Z,1.13
2022-09-03T00:48:37.285Z,0.65
2022-09-03T00:51:25.817Z,1.08
2022-09-03T00:54:10.816Z,0.47
2022-09-03T00:56:48.121Z,0.52
2022-09-03T00:59:23.757Z,0.68
2022-09-03T01:01:58.891Z,0.65
2022-09-03T01:04:34.711Z,0.80
2022-09-03T01:07:19.790Z,0.45
2022-09-03T01:10:11.541Z,0.40
2022-09-03T01:12:43.613Z,0.70
2022-09-03T01:15:15.317Z,0.60
2022-09-03T01:17:47.054Z,0.50
2022-09-03T01:20:16.093Z,0.77
2022-09-03T01:22:48.878Z,0.55
2022-09-03T01:25:32.087Z,0.98
2022-09-03T01:28:17.386Z,0.75
2022-09-03T01:30:49.162Z,0.65
2022-09-03T01:33:38.351Z,0.80
2022-09-03T01:36:10.173Z,0.40
2022-09-03T01:38:43.033Z,0.77
2022-09-03T01:41:46.925Z,1.48
2022-09-03T01:44:32.730Z,0.50
2022-09-03T01:47:25.107Z,0.32
2022-09-03T01:49:57.930Z,0.60
2022-09-03T01:52:44.758Z,0.55
2022-09-03T01:55:23.245Z,0.60
2022-09-03T01:57:56.017Z,0.47
2022-09-03T02:00:22.695Z,0.75
2022-09-03T02:02:51.595Z,0.70
2022-09-03T02:05:24.583Z,0.85
2022-09-03T02:07:59.134Z,0.60
2022-09-03T02:10:33.817Z,0.70
2022-09-03T02:13:15.808Z,0.63
2022-09-03T02:15:45.768Z,0.70
2022-09-03T02:18:16.637Z,0.47
2022-09-03T02:20:43.067Z,0.77
2022-09-03T02:23:09.462Z,0.40
2022-09-03T02:25:38.093Z,0.60
2022-09-03T02:28:05.584Z,0.68
2022-09-03T02:30:37.557Z,0.85
2022-09-03T02:33:04.357Z,0.63
2022-09-03T02:35:30.738Z,0.73
2022-09-03T02:37:57.034Z,1.38
2022-09-03T02:40:23.309Z,0.50
2022-09-03T02:42:50.395Z,0.93
2022-09-03T02:45:28.918Z,1.17
2022-09-03T02:47:56.723Z,0.43
2022-09-03T02:50:23.325Z,0.75
2022-09-03T02:52:50.127Z,1.55
2022-09-03T02:55:16.717Z,0.90
2022-09-03T02:57:43.347Z,0.73
2022-09-03T03:00:10.012Z,0.73
2022-09-03T03:02:36.358Z,1.00
2022-09-03T03:05:02.770Z,0.68
2022-09-03T03:07:33.126Z,0.98
2022-09-03T03:09:59.809Z,1.08
2022-09-03T03:12:26.424Z,0.80
2022-09-03T03:14:52.728Z,2.60
2022-09-03T03:17:19.384Z,1.00
2022-09-03T03:19:45.697Z,0.70
2022-09-03T03:22:12.006Z,0.93
2022-09-03T03:24:38.346Z,0.50
2022-09-03T03:27:06.271Z,1.13
2022-09-03T03:29:32.832Z,0.60
2022-09-03T03:31:59.127Z,1.42
2022-09-03T03:34:25.418Z,1.00
2022-09-03T03:36:51.710Z,1.00
2022-09-03T03:39:18.304Z,0.60
2022-09-03T03:41:44.643Z,0.90
2022-09-03T03:44:10.947Z,0.82
2022-09-03T03:46:38.543Z,1.10
2022-09-03T03:49:06.475Z,1.42
2022-09-03T03:51:33.378Z,1.27
2022-09-03T03:54:04.801Z,0.88
2022-09-03T03:56:31.755Z,1.08
2022-09-03T03:58:59.119Z,0.98
2022-09-03T04:01:26.278Z,2.13
2022-09-03T04:03:54.752Z,1.10
2022-09-03T04:08:50.306Z,1.25
2022-09-03T04:11:20.833Z,0.88
2022-09-03T04:13:47.753Z,0.70
2022-09-03T04:16:15.346Z,1.05
2022-09-03T04:18:42.833Z,1.30
2022-09-03T04:21:10.758Z,1.30
2022-09-03T04:23:38.587Z,1.23
2022-09-03T04:26:05.399Z,1.00
2022-09-03T04:28:32.432Z,0.98
2022-09-03T04:31:05.947Z,1.00
2022-09-03T04:33:34.352Z,1.40
2022-09-03T04:36:06.525Z,1.50
2022-09-03T04:38:33.826Z,1.33
2022-09-03T04:41:00.871Z,1.23
2022-09-03T04:43:27.685Z,1.00
2022-09-03T04:46:00.480Z,1.42
2022-09-03T04:48:27.523Z,1.48
2022-09-03T04:50:54.975Z,0.85
2022-09-03T04:53:22.483Z,1.40
2022-09-03T04:55:48.783Z,1.25
2022-09-03T04:58:15.132Z,1.15
2022-09-03T05:00:41.472Z,1.00
2022-09-03T05:03:07.791Z,1.25
2022-09-03T05:05:34.272Z,1.63
2022-09-03T05:08:04.047Z,1.10
2022-09-03T05:10:30.824Z,1.20
2022-09-03T05:13:01.015Z,1.42
2022-09-03T05:17:59.966Z,1.20
2022-09-03T05:20:26.489Z,1.00
2022-09-03T05:22:52.952Z,2.03
2022-09-03T05:25:19.247Z,1.90
2022-09-03T05:27:46.173Z,1.88
2022-09-03T05:30:12.838Z,1.42
2022-09-03T05:32:39.146Z,1.75
2022-09-03T05:35:05.800Z,2.00
2022-09-03T05:37:32.077Z,1.40
2022-09-03T05:39:58.443Z,1.50
2022-09-03T05:42:24.740Z,1.38
2022-09-03T05:44:51.303Z,1.65
2022-09-03T05:47:17.597Z,2.42
2022-09-03T05:49:43.895Z,1.40
2022-09-03T05:52:10.212Z,1.58
2022-09-03T05:54:36.514Z,1.30
2022-09-03T05:57:02.817Z,1.45
2022-09-03T05:59:29.132Z,1.98
2022-09-03T06:01:59.382Z,1.60
2022-09-03T06:04:26.521Z,2.13
2022-09-03T06:06:52.854Z,1.40
2022-09-03T06:09:20.020Z,1.38
2022-09-03T06:11:47.029Z,2.90
2022-09-03T06:14:14.413Z,1.30
2022-09-03T06:16:42.303Z,1.45
2022-09-03T06:19:10.170Z,1.08
2022-09-03T06:21:37.286Z,1.55
2022-09-03T06:24:03.663Z,1.30
2022-09-03T06:26:29.943Z,1.48
2022-09-03T06:29:09.940Z,1.13
2022-09-03T06:31:36.272Z,0.68
2022-09-03T06:34:04.320Z,1.65
2022-09-03T06:36:30.810Z,1.10
2022-09-03T06:38:58.377Z,1.15
2022-09-03T06:41:26.235Z,0.95
2022-09-03T06:43:59.099Z,1.23
2022-09-03T06:46:25.423Z,0.93
2022-09-03T06:48:51.826Z,1.05
2022-09-03T06:51:22.442Z,0.60
2022-09-03T06:53:50.190Z,1.00
2022-09-03T06:56:26.274Z,0.80
2022-09-03T06:58:56.461Z,0.47
2022-09-03T07:01:25.685Z,0.38
2022-09-03T07:03:55.865Z,0.80
2022-09-03T07:06:22.942Z,0.85
2022-09-03T07:08:49.258Z,0.57
2022-09-03T07:11:18.032Z,0.43
2022-09-03T07:13:45.686Z,0.35
2022-09-03T07:16:13.599Z,0.68
2022-09-03T07:18:40.457Z,0.47
2022-09-03T07:21:08.282Z,0.75
2022-09-03T07:23:35.162Z,0.63
2022-09-03T07:26:03.243Z,0.35
2022-09-03T07:28:29.788Z,0.25
2022-09-03T07:31:01.543Z,0.40
2022-09-03T07:33:31.747Z,0.38
2022-09-03T07:36:07.840Z,0.50
2022-09-03T07:38:34.922Z,0.25
2022-09-03T07:41:02.846Z,1.23
2022-09-03T07:43:30.385Z,0.55
2022-09-03T07:45:57.088Z,0.30
2022-09-03T07:48:23.730Z,0.30
2022-09-03T07:50:50.065Z,0.32
2022-09-03T07:53:17.049Z,0.50
2022-09-03T07:55:44.457Z,0.47
2022-09-03T07:58:14.224Z,0.20
2022-09-03T08:00:40.687Z,0.43
2022-09-03T08:03:08.548Z,0.20
2022-09-03T08:05:36.265Z,0.43
2022-09-03T08:08:05.431Z,0.30
2022-09-03T08:10:35.362Z,0.50
2022-09-03T08:15:27.903Z,0.40
2022-09-03T08:17:54.225Z,0.40
2022-09-03T08:20:29.669Z,0.50
2022-09-03T08:23:03.111Z,0.30
2022-09-03T08:25:29.744Z,0.30
2022-09-03T08:27:58.289Z,0.50
2022-09-03T08:30:25.294Z,0.20
2022-09-03T08:32:51.952Z,0.30
2022-09-03T08:35:18.247Z,0.25
2022-09-03T08:37:44.532Z,0.30
2022-09-03T08:40:10.886Z,0.65
2022-09-03T08:42:46.420Z,0.30
2022-09-03T08:45:16.339Z,1.00
2022-09-03T08:50:21.695Z,1.38
2022-09-03T08:52:50.274Z,0.40
2022-09-03T08:55:20.394Z,0.32
2022-09-03T08:57:48.252Z,0.20
2022-09-03T09:00:15.061Z,0.50
2022-09-03T09:02:50.634Z,0.28
2022-09-03T09:05:24.281Z,0.40
2022-09-03T09:07:57.639Z,0.10
2022-09-03T09:10:23.976Z,0.50
2022-09-03T09:12:53.247Z,0.30
2022-09-03T09:15:27.349Z,0.20
2022-09-03T09:18:10.894Z,0.63
2022-09-03T09:20:58.659Z,0.22
2022-09-03T09:23:30.262Z,0.28
2022-09-03T09:25:58.866Z,0.15
2022-09-03T09:28:29.243Z,0.25
2022-09-03T09:30:56.955Z,0.20
2022-09-03T09:33:26.598Z,0.15
2022-09-03T09:35:55.665Z,0.40
2022-09-03T09:38:32.853Z,0.30
2022-09-03T09:41:11.290Z,0.75
2022-09-03T09:43:38.967Z,0.55
2022-09-03T09:46:14.198Z,0.38
2022-09-03T09:48:49.151Z,0.45
2022-09-03T09:51:19.989Z,0.30
2022-09-03T09:53:46.318Z,0.22
2022-09-03T09:56:22.624Z,1.80
2022-09-03T09:58:49.096Z,0.20
2022-09-03T10:01:21.915Z,0.13
2022-09-03T10:03:49.906Z,0.22
2022-09-03T10:06:35.207Z,0.10
2022-09-03T10:09:11.605Z,0.10
2022-09-03T10:11:39.835Z,0.22
2022-09-03T10:14:10.237Z,0.10
2022-09-03T10:16:40.121Z,0.28
2022-09-03T10:19:10.509Z,0.70
2022-09-03T10:21:55.507Z,0.10
2022-09-03T10:24:30.610Z,0.40
2022-09-03T10:26:58.362Z,0.10
2022-09-03T10:29:30.246Z,0.20
2022-09-03T10:32:03.711Z,0.60
2022-09-03T10:34:34.990Z,0.13
2022-09-03T10:37:17.019Z,0.20
2022-09-03T10:39:55.566Z,0.20
2022-09-03T10:42:41.038Z,0.30
2022-09-03T10:45:17.906Z,0.50
2022-09-03T10:47:50.437Z,0.98
2022-09-03T10:50:23.234Z,0.10
2022-09-03T10:52:49.533Z,0.10
2022-09-03T10:55:15.823Z,0.38
2022-09-03T10:57:51.035Z,0.10
2022-09-03T11:00:18.784Z,0.10
2022-09-03T11:02:48.367Z,0.20
2022-09-03T11:07:53.333Z,0.32
2022-09-03T11:10:24.925Z,0.17
2022-09-03T11:13:13.424Z,0.30
2022-09-03T11:15:42.899Z,0.15
2022-09-03T11:20:35.654Z,0.10
2022-09-03T11:23:04.437Z,0.10
2022-09-03T11:25:51.031Z,0.10
2022-09-03T11:28:19.248Z,0.00
2022-09-03T11:30:52.183Z,0.00
2022-09-03T11:33:21.317Z,0.20
2022-09-03T11:35:55.234Z,0.65
2022-09-03T11:38:24.608Z,0.32
2022-09-03T11:41:17.105Z,0.00
2022-09-03T11:43:44.115Z,0.00
2022-09-03T11:46:13.804Z,0.17
2022-09-03T11:48:40.298Z,0.70
2022-09-03T11:51:21.760Z,0.00
2022-09-03T11:53:55.578Z,0.00
2022-09-03T11:56:22.826Z,0.10
2022-09-03T11:59:03.147Z,0.10
2022-09-03T12:01:29.553Z,0.10
2022-09-03T12:04:04.770Z,0.10
2022-09-03T12:06:40.319Z,0.47
2022-09-03T12:09:45.683Z,0.10
2022-09-03T12:12:18.525Z,0.10
2022-09-03T12:14:58.012Z,0.17
2022-09-03T12:17:40.245Z,0.30
2022-09-03T12:20:12.815Z,0.00
2022-09-03T12:22:39.614Z,0.00
2022-09-03T12:25:10.269Z,0.10
2022-09-03T12:27:38.601Z,0.00
2022-09-03T12:30:05.874Z,0.10
2022-09-03T12:32:37.252Z,0.28
2022-09-03T12:38:06.456Z,0.00
2022-09-03T12:40:35.446Z,0.20
2022-09-03T12:43:46.186Z,0.10
2022-09-03T12:46:16.588Z,0.00
2022-09-03T12:52:05.497Z,0.10
2022-09-03T12:56:59.603Z,0.00
2022-09-03T12:59:28.333Z,0.30
2022-09-03T13:01:56.113Z,0.10
2022-09-03T13:04:26.821Z,0.00
2022-09-03T13:06:56.754Z,0.13
2022-09-03T13:09:24.426Z,0.10
2022-09-03T13:11:52.469Z,0.10
2022-09-03T13:14:19.987Z,0.10
2022-09-03T13:16:46.370Z,0.05
2022-09-03T13:19:24.838Z,0.10
2022-09-03T13:21:59.658Z,0.50
2022-09-03T13:24:44.571Z,0.10
2022-09-03T13:27:11.151Z,0.10
2022-09-03T13:29:40.061Z,0.00
2022-09-03T13:32:18.349Z,0.00
2022-09-03T13:34:51.027Z,0.10
2022-09-03T13:37:20.134Z,0.10
2022-09-03T13:39:53.296Z,0.17
2022-09-03T13:42:24.183Z,0.20
2022-09-03T13:45:11.097Z,0.10
2022-09-03T13:48:03.244Z,0.10
2022-09-03T13:50:31.651Z,0.20
2022-09-03T13:53:04.704Z,0.10
2022-09-03T13:55:30.985Z,0.20
2022-09-03T13:58:16.395Z,0.10
2022-09-03T14:00:46.089Z,0.20
2022-09-03T14:03:25.705Z,0.40
2022-09-03T14:06:02.002Z,0.05
2022-09-03T14:08:38.972Z,0.10
2022-09-03T14:11:14.766Z,0.20
2022-09-03T14:14:00.339Z,0.38
2022-09-03T14:16:49.963Z,0.40
2022-09-03T14:19:33.240Z,0.10
2022-09-03T14:22:19.837Z,0.10
2022-09-03T14:24:46.182Z,0.10
2022-09-03T14:27:12.878Z,0.30
2022-09-03T14:29:50.033Z,0.20
2022-09-03T14:32:29.091Z,0.55
2022-09-03T14:37:38.664Z,0.08
2022-09-03T14:40:25.232Z,0.13
2022-09-03T14:43:00.673Z,0.00
2022-09-03T14:45:46.481Z,0.10
2022-09-03T14:48:31.423Z,0.00
2022-09-03T14:51:03.819Z,0.05
2022-09-03T14:53:55.674Z,0.08
2022-09-03T14:56:40.768Z,0.00
2022-09-03T14:59:20.937Z,0.20
2022-09-03T15:01:52.426Z,0.10
2022-09-03T15:04:18.778Z,0.15
2022-09-03T15:07:00.889Z,0.03
2022-09-03T15:09:40.906Z,0.28
2022-09-03T15:12:13.247Z,0.30
2022-09-03T15:14:44.523Z,0.22
2022-09-03T15:17:20.073Z,0.10
2022-09-03T15:20:01.496Z,0.08
2022-09-03T15:22:27.766Z,0.28
2022-09-03T15:25:06.079Z,0.43
2022-09-03T15:27:41.655Z,0.20
2022-09-03T15:30:12.750Z,0.17
2022-09-03T15:32:47.935Z,0.22
2022-09-03T15:35:26.423Z,0.10
2022-09-03T15:37:54.667Z,0.47
2022-09-03T15:40:39.796Z,0.20
2022-09-03T15:43:10.558Z,0.57
2022-09-03T15:45:49.582Z,0.00
2022-09-03T15:48:34.573Z,0.03
2022-09-03T15:51:20.301Z,0.10
2022-09-03T15:53:52.696Z,0.00
2022-09-03T15:56:36.936Z,0.10
2022-09-03T15:59:15.430Z,0.10
2022-09-03T16:01:59.391Z,0.20
2022-09-03T16:04:34.411Z,0.08
2022-09-03T16:07:23.678Z,0.20
2022-09-03T16:10:24.329Z,0.20
2022-09-03T16:13:04.565Z,0.10
2022-09-03T16:18:04.507Z,0.10
2022-09-03T16:20:35.216Z,0.30
2022-09-03T16:23:05.664Z,0.20
2022-09-03T16:25:35.608Z,0.15
2022-09-03T16:28:10.291Z,0.38
2022-09-03T16:30:39.169Z,0.20
2022-09-03T16:33:11.739Z,0.30
2022-09-03T16:35:41.001Z,1.08
2022-09-03T16:38:26.181Z,0.10
2022-09-03T16:40:55.348Z,0.30
2022-09-03T16:43:40.153Z,0.22
2022-09-03T16:46:23.089Z,0.68
2022-09-03T16:49:12.850Z,0.45
2022-09-03T16:51:52.175Z,0.22
2022-09-03T16:54:21.363Z,0.10
2022-09-03T16:56:56.546Z,0.10
2022-09-03T16:59:41.460Z,0.40
2022-09-03T17:02:40.101Z,0.93
2022-09-03T17:05:26.591Z,0.22
2022-09-03T17:07:56.128Z,0.30
2022-09-03T17:10:26.246Z,0.57
2022-09-03T17:13:11.150Z,1.27
2022-09-03T17:15:37.470Z,0.50
2022-09-03T17:18:04.042Z,0.30
2022-09-03T17:20:36.081Z,0.30
2022-09-03T17:23:11.434Z,0.32
2022-09-03T17:25:51.832Z,0.60
2022-09-03T17:28:35.385Z,0.35
2022-09-03T17:31:21.499Z,0.50
2022-09-03T17:34:06.449Z,0.82
2022-09-03T17:36:37.039Z,0.30
2022-09-03T17:39:12.707Z,0.30
2022-09-03T17:41:45.407Z,0.40
2022-09-03T17:44:30.833Z,0.15
2022-09-03T17:47:15.690Z,0.45
2022-09-03T17:49:45.119Z,0.15
2022-09-03T17:52:27.200Z,0.30
2022-09-03T17:54:56.787Z,0.10
2022-09-03T17:57:39.925Z,0.13
2022-09-03T18:00:10.807Z,0.13
2022-09-03T18:02:43.337Z,0.10
2022-09-03T18:05:22.470Z,0.73
2022-09-03T18:07:58.258Z,0.13
2022-09-03T18:10:32.434Z,0.20
2022-09-03T18:13:04.712Z,0.40
2022-09-03T18:15:48.129Z,0.20
2022-09-03T18:21:23.374Z,0.60
2022-09-03T18:24:15.937Z,0.30
2022-09-03T18:27:04.757Z,0.60
2022-09-03T18:29:54.439Z,0.30
2022-09-03T18:35:26.370Z,0.30
2022-09-03T18:38:11.070Z,0.65
2022-09-03T18:41:04.433Z,0.22
2022-09-03T18:43:54.799Z,0.43
2022-09-03T18:49:55.323Z,0.35
2022-09-03T18:52:46.593Z,0.30
2022-09-03T18:55:51.023Z,0.20
2022-09-03T18:58:44.258Z,0.45
2022-09-03T19:01:38.294Z,0.20
2022-09-03T19:04:33.704Z,0.50
2022-09-03T19:07:18.452Z,0.22
2022-09-03T19:10:18.695Z,0.20
2022-09-03T19:13:26.579Z,0.30
2022-09-03T19:16:18.073Z,0.10
2022-09-03T19:19:14.151Z,0.30
2022-09-03T19:22:06.475Z,0.73
2022-09-03T19:24:51.436Z,0.17
2022-09-03T19:27:55.275Z,0.32
2022-09-03T19:30:50.680Z,0.35
2022-09-03T19:33:54.518Z,1.73
2022-09-03T19:36:46.989Z,0.28
2022-09-03T19:39:50.197Z,0.30
2022-09-03T19:42:52.246Z,0.40
2022-09-03T19:45:56.081Z,0.30
2022-09-03T19:48:56.319Z,0.30
2022-09-03T19:51:44.719Z,0.43
2022-09-03T19:54:29.521Z,0.60
2022-09-03T19:57:15.908Z,0.57
2022-09-03T20:00:03.867Z,0.40
2022-09-03T20:02:48.723Z,0.55
2022-09-03T20:05:36.811Z,0.50
2022-09-03T20:08:22.243Z,0.32
2022-09-03T20:10:50.455Z,0.32
2022-09-03T20:13:18.621Z,0.60
2022-09-03T20:15:56.815Z,0.20
2022-09-03T20:18:31.945Z,0.17
2022-09-03T20:21:14.821Z,0.57
2022-09-03T20:24:00.078Z,0.30
2022-09-03T20:26:41.499Z,0.22
2022-09-03T20:29:17.102Z,0.47
2022-09-03T20:31:43.409Z,0.45
2022-09-03T20:34:26.159Z,0.10
2022-09-03T20:36:56.705Z,0.10
2022-09-03T20:39:41.339Z,0.45
2022-09-03T20:42:16.660Z,0.30
2022-09-03T20:44:52.626Z,0.28
2022-09-03T20:47:28.160Z,0.52
2022-09-03T20:49:54.616Z,0.40
2022-09-03T20:52:26.184Z,0.30
2022-09-03T20:55:11.188Z,0.30
2022-09-03T20:57:45.821Z,0.40
2022-09-03T21:00:13.922Z,0.35
2022-09-03T21:02:59.569Z,0.88
2022-09-03T21:05:30.049Z,0.60
2022-09-03T21:07:59.144Z,0.47
2022-09-03T21:10:48.004Z,0.70
2022-09-03T21:13:38.511Z,0.47
2022-09-03T21:16:23.966Z,1.80
2022-09-03T21:19:00.026Z,0.88
2022-09-03T21:21:36.543Z,0.60
2022-09-03T21:24:15.087Z,0.30
2022-09-03T21:26:46.042Z,0.32
2022-09-03T21:29:50.703Z,0.77
2022-09-03T21:32:19.915Z,0.30
2022-09-03T21:34:58.723Z,0.57
2022-09-03T21:37:25.019Z,0.40
2022-09-03T21:39:54.544Z,0.52
2022-09-03T21:42:36.519Z,0.40
2022-09-03T21:45:07.611Z,0.30
2022-09-03T21:47:37.445Z,0.47
2022-09-03T21:50:16.530Z,0.40
2022-09-03T21:52:52.703Z,0.43
2022-09-03T21:55:20.778Z,0.30
2022-09-03T21:58:13.172Z,0.60
2022-09-03T22:00:39.479Z,0.65
2022-09-03T22:03:07.826Z,0.75
2022-09-03T22:05:43.644Z,0.30
2022-09-03T22:08:36.130Z,1.40
2022-09-03T22:11:28.781Z,0.65
2022-09-03T22:14:01.191Z,0.85
2022-09-03T22:16:32.921Z,1.02
2022-09-03T22:18:59.769Z,0.52
2022-09-03T22:21:29.152Z,0.77
2022-09-03T22:23:55.592Z,0.82
2022-09-03T22:26:31.257Z,0.68
2022-09-03T22:29:08.009Z,1.00
2022-09-03T22:31:56.591Z,1.13
2022-09-03T22:34:58.490Z,1.10
2022-09-03T22:37:32.334Z,1.38
2022-09-03T22:40:06.603Z,0.95
2022-09-03T22:42:41.121Z,1.60
2022-09-03T22:45:07.394Z,1.15
2022-09-03T22:47:41.070Z,1.02
2022-09-03T22:50:26.635Z,1.50
2022-09-03T22:52:59.110Z,0.93
2022-09-03T22:55:26.066Z,1.23
2022-09-03T22:58:11.200Z,0.93
2022-09-03T23:00:40.633Z,0.95
2022-09-03T23:03:14.536Z,1.83
2022-09-03T23:05:50.063Z,0.93
2022-09-03T23:08:25.517Z,0.90
2022-09-03T23:11:10.890Z,0.88
2022-09-03T23:13:41.884Z,0.95
2022-09-03T23:16:12.618Z,1.20
2022-09-03T23:18:40.447Z,1.30
2022-09-03T23:21:11.975Z,1.00
2022-09-03T23:23:40.609Z,1.48
2022-09-03T23:26:12.214Z,0.90
2022-09-03T23:28:40.399Z,1.40
2022-09-03T23:31:27.019Z,1.52
2022-09-03T23:33:54.708Z,1.05
2022-09-03T23:36:54.987Z,1.00
2022-09-03T23:39:20.927Z,1.35
2022-09-03T23:42:05.706Z,3.55
2022-09-03T23:44:45.205Z,1.63
2022-09-03T23:47:36.052Z,1.38
2022-09-03T23:50:02.334Z,1.20
2022-09-03T23:52:47.307Z,1.45
2022-09-03T23:55:13.592Z,1.38
2022-09-03T23:57:41.152Z,2.00
